Private Wetterstation Nrnberg - Katzwang
Wetterdaten: November 2013
Datum Temp. A. Feuchte A. Luftdruck Regen Wind Richtung Taupunkt Windchill Windben
01.11.2013 6,4 C 83 % 1015 hPa 0,0 l/m 6,8 km/h N-NO 3,7 C 5,2 C 7,8 km/h
02.11.2013 13,3 C 79 % 1006 hPa 5,7 l/m 7,2 km/h W-NW 9,7 C 12,3 C 8,2 km/h
03.11.2013 7,6 C 81 % 1006 hPa 4,7 l/m 3,9 km/h W-NW 4,5 C 6,6 C 4,9 km/h
04.11.2013 9,3 C 80 % 993 hPa 6,2 l/m 9,6 km/h NO 5,9 C 7,2 C 10,6 km/h
05.11.2013 5,4 C 77 % 997 hPa 3,1 l/m 3,3 km/h W-NW 1,6 C 4,4 C 4,3 km/h
06.11.2013 10,1 C 82 % 1004 hPa 8,8 l/m 5,6 km/h W-NW 7,1 C 9,5 C 6,6 km/h
07.11.2013 11,9 C 80 % 1009 hPa 0,0 l/m 3,4 km/h W-NW 8,5 C 11,6 C 4,4 km/h
08.11.2013 11,8 C 82 % 1007 hPa 2,6 l/m 6,5 km/h N-NO 8,9 C 10,8 C 7,5 km/h
09.11.2013 6,8 C 78 % 1010 hPa 3,1 l/m 5,7 km/h W-NW 3,2 C 5,5 C 6,7 km/h
10.11.2013 4,9 C 84 % 1008 hPa 8,8 l/m 0,9 km/h N-NO 2,5 C 4,9 C 1,9 km/h
11.11.2013 3,5 C 83 % 1027 hPa 0,0 l/m 0,0 km/h W-NW 0,9 C 3,5 C 1,0 km/h
12.11.2013 1,5 C 83 % 1023 hPa 0,5 l/m 0,3 km/h N-NO -1,2 C 1,5 C 1,4 km/h
13.11.2013 3,6 C 85 % 1027 hPa 1,6 l/m 1,4 km/h N-NO 1,3 C 3,6 C 2,4 km/h
14.11.2013 3,4 C 84 % 1018 hPa 0,5 l/m 0,3 km/h NO 1,0 C 3,4 C 1,4 km/h
15.11.2013 4,0 C 82 % 1023 hPa 0,0 l/m 3,6 km/h NO 1,1 C 3,2 C 4,6 km/h
16.11.2013 6,3 C 80 % 1025 hPa 0,0 l/m 1,2 km/h O 3,1 C 6,3 C 2,2 km/h
17.11.2013 6,2 C 81 % 1018 hPa 0,0 l/m 3,8 km/h O-NO 3,1 C 6,1 C 4,8 km/h
18.11.2013 5,1 C 82 % 1009 hPa 0,0 l/m 1,2 km/h N-NO 2,3 C 5,1 C 2,2 km/h
19.11.2013 4,7 C 83 % 1001 hPa 5,2 l/m 0,0 km/h O 2,0 C 4,7 C 1,0 km/h
20.11.2013 2,8 C 85 % 1001 hPa 8,3 l/m 0,0 km/h N-NW 0,5 C 2,8 C 1,0 km/h
21.11.2013 3,4 C 84 % 997 hPa 0,5 l/m 0,0 km/h NO 1,0 C 3,4 C 1,0 km/h
22.11.2013 5,4 C 83 % 1003 hPa 0,5 l/m 4,6 km/h N-NO 2,7 C 4,9 C 5,6 km/h
23.11.2013 6,0 C 80 % 1009 hPa 0,0 l/m 11,1 km/h N-NO 2,8 C 2,7 C 12,1 km/h
24.11.2013 4,2 C 75 % 1015 hPa 0,5 l/m 11,9 km/h N-NO 0,0 C -0,2 C 12,9 km/h
25.11.2013 -1,8 C 76 % 1024 hPa 0,0 l/m 0,0 km/h W-NW -5,6 C -1,8 C 1,0 km/h
26.11.2013 -2,3 C 79 % 1028 hPa 0,0 l/m 0,0 km/h N-NO -5,5 C -2,3 C 1,0 km/h
27.11.2013 -4,7 C 79 % 1030 hPa 0,0 l/m 0,0 km/h NO -7,9 C -4,7 C 1,0 km/h
28.11.2013 0,1 C 84 % 1027 hPa 0,5 l/m 0,0 km/h N-NW -2,3 C 0,1 C 1,0 km/h
29.11.2013 2,7 C 83 % 1016 hPa 1,6 l/m 5,5 km/h W-NW 0,0 C 2,6 C 6,5 km/h
Min-Datum 27.11.13 05.11.13 04.11.13 18 Tage 01.11.13 - 27.11.13 29.11.13 01.11.13
Min-Zeit 07:00 14:50 16:30 - 01:00 - 07:00 18:30 01:00
Minimum -8,1 C 61 % 990 hPa - 0,0 km/h - -10,5 C -11,4 C 1,0 km/h
Max-Datum 07.11.13 14.11.13 27.11.13 06.11.13 29.11.13 - 02.11.13 07.11.13 29.11.13
Max-Zeit 11:50 01:20 08:50 03:20 18:30 - 15:00 11:50 18:30
Maximum 15,9 C 87 % 1031 hPa 8,8 l/m 41,0 km/h
W-NW
- 11,7 C 15,9 C 59,1 km/h
W-NW
Durchschnitt 4,9 C 81 % 1013 hPa #62,7 l/m 3,4 km/h N-NO 1,9 C 4,2 C 4,4 km/h

Durchschnitt Minimum Temp.2,3 C
Durchschnitt Maximum Temp.7,4 C